createdAt,value
2019-05-07T00:01:36.264Z,214.44
2019-05-07T00:06:35.048Z,220.89
2019-05-07T00:11:35.256Z,219.28
2019-05-07T00:16:35.030Z,210.08
2019-05-07T00:21:34.998Z,210.75
2019-05-07T00:26:35.025Z,205.26
2019-05-07T00:31:34.976Z,203.49
2019-05-07T00:36:34.990Z,206.93
2019-05-07T00:41:34.970Z,210.62
2019-05-07T00:46:36.367Z,218.55
2019-05-07T00:50:16.734Z,213.06
2019-05-07T00:55:16.740Z,202.61
2019-05-07T01:00:16.722Z,199.8
2019-05-07T01:05:16.746Z,217.69
2019-05-07T01:10:16.727Z,208.89
2019-05-07T01:15:34.582Z,216.69
2019-05-07T01:20:16.690Z,221.19
2019-05-07T01:25:16.712Z,220.89
2019-05-07T01:30:16.703Z,168.97
2019-05-07T01:35:16.734Z,209.15
2019-05-07T01:40:16.693Z,190.03
2019-05-07T01:45:16.675Z,203.36
2019-05-07T01:50:16.724Z,202.24
2019-05-07T01:55:16.650Z,166.46
2019-05-07T02:00:16.715Z,161.66
2019-05-07T02:05:16.680Z,177.91
2019-05-07T02:10:16.674Z,165.32
2019-05-07T02:15:16.654Z,175.31
2019-05-07T02:20:16.647Z,176.6
2019-05-07T02:25:16.656Z,169.99
2019-05-07T02:30:17.178Z,182.94
2019-05-07T02:35:16.674Z,167.96
2019-05-07T02:40:16.694Z,185.45
2019-05-07T02:45:16.646Z,156.54
2019-05-07T02:50:16.612Z,185.55
2019-05-07T02:55:16.740Z,179.81
2019-05-07T03:00:23.943Z,167.46
2019-05-07T03:05:16.604Z,173.86
2019-05-07T03:10:16.611Z,185.36
2019-05-07T03:15:16.628Z,186.6
2019-05-07T03:20:16.626Z,190.47
2019-05-07T03:25:16.624Z,189.71
2019-05-07T03:30:19.169Z,190.47
2019-05-07T03:35:18.452Z,192.92
2019-05-07T03:40:16.630Z,186.08
2019-05-07T03:45:16.627Z,188.62
2019-05-07T03:50:17.172Z,198.72
2019-05-07T03:55:16.981Z,190.03
2019-05-07T04:00:16.582Z,175.68
2019-05-07T04:05:16.629Z,132.49
2019-05-07T04:10:17.504Z,152.84
2019-05-07T04:15:23.292Z,155.24
2019-05-07T04:20:16.559Z,156.69
2019-05-07T04:25:16.619Z,153.54
2019-05-07T04:30:16.553Z,156.4
2019-05-07T04:57:15.026Z,135.37
2019-05-07T05:02:15.821Z,130.53
2019-05-07T05:07:15.559Z,115.47
2019-05-07T05:12:15.389Z,135.8
2019-05-07T05:17:15.140Z,146.71
2019-05-07T05:22:14.928Z,155.38
2019-05-07T05:27:14.366Z,182.15
2019-05-07T05:32:14.141Z,185.35
2019-05-07T05:37:14.135Z,180.39
2019-05-07T05:42:13.989Z,190.25
2019-05-07T05:47:14.125Z,223.58
2019-05-07T05:52:14.622Z,251.66
2019-05-07T05:57:14.379Z,265.4
2019-05-07T06:02:14.312Z,246.04
2019-05-07T06:07:16.934Z,272.18
2019-05-07T06:12:14.834Z,323.6
2019-05-07T06:17:15.182Z,330.06
2019-05-07T06:22:18.634Z,277.67
2019-05-07T06:27:14.406Z,291.11
2019-05-07T06:32:14.299Z,251.86
2019-05-07T06:37:14.036Z,321.71
2019-05-07T06:42:14.825Z,344.15
2019-05-07T06:47:17.192Z,579.66
2019-05-07T06:52:14.382Z,501.74
2019-05-07T06:57:15.206Z,529.41
2019-05-07T07:02:14.896Z,516
2019-05-07T07:07:36.991Z,740.72
2019-05-07T07:12:15.577Z,547.09
2019-05-07T07:17:18.762Z,279.07
2019-05-07T07:22:18.706Z,340.25
2019-05-07T07:27:18.696Z,399.18
2019-05-07T07:32:18.709Z,527.34
2019-05-07T07:37:18.704Z,450.29
2019-05-07T07:42:25.005Z,480.22
2019-05-07T07:47:24.448Z,558
2019-05-07T07:52:25.130Z,603.08
2019-05-07T07:57:23.901Z,691.18
2019-05-07T08:02:25.136Z,673.85
2019-05-07T08:07:24.965Z,533.62
2019-05-07T08:12:24.270Z,464.61
2019-05-07T08:17:24.613Z,423.33
2019-05-07T08:22:24.799Z,394.27
2019-05-07T08:27:24.356Z,416.51
2019-05-07T08:32:24.391Z,325.19
2019-05-07T08:37:26.440Z,284.11
2019-05-07T08:42:24.974Z,243.33
2019-05-07T08:47:24.949Z,216.98
2019-05-07T08:52:26.058Z,214.86
2019-05-07T08:57:24.898Z,201.87
2019-05-07T09:02:24.370Z,239.97
2019-05-07T09:07:44.564Z,229.64
2019-05-07T09:12:44.894Z,234.52
2019-05-07T09:17:44.433Z,254.57
2019-05-07T09:22:44.714Z,217.98
2019-05-07T09:27:44.516Z,267.55
2019-05-07T09:32:44.575Z,237.22
2019-05-07T09:37:44.185Z,268.86
2019-05-07T09:42:48.266Z,255.36
2019-05-07T09:47:43.876Z,249.57
2019-05-07T09:52:44.692Z,305.93
2019-05-07T09:57:44.599Z,316.17
2019-05-07T10:02:44.485Z,395.43
2019-05-07T10:07:44.480Z,439.68
2019-05-07T10:12:44.173Z,418.85
2019-05-07T10:17:42.474Z,464.93
2019-05-07T10:22:44.888Z,571.77
2019-05-07T10:27:43.972Z,602
2019-05-07T10:32:44.299Z,530.67
2019-05-07T10:37:44.450Z,627.29
2019-05-07T10:42:45.052Z,640.45
2019-05-07T10:47:43.969Z,760.32
2019-05-07T10:52:44.523Z,803.95
2019-05-07T10:57:44.366Z,725.52
2019-05-07T11:02:44.591Z,644.75
2019-05-07T11:07:55.875Z,819.62
2019-05-07T11:12:53.869Z,719.3
2019-05-07T11:17:54.229Z,966.24
2019-05-07T11:22:54.388Z,915.59
2019-05-07T11:27:54.528Z,945.85
2019-05-07T11:32:54.392Z,890.73
2019-05-07T11:37:54.263Z,543.11
2019-05-07T11:42:54.075Z,444.62
2019-05-07T11:47:53.176Z,476.14
2019-05-07T11:52:53.883Z,614.1
2019-05-07T11:57:53.958Z,558.92
2019-05-07T12:02:53.984Z,597.18
2019-05-07T12:07:53.173Z,595.59
2019-05-07T12:12:54.233Z,524.87
2019-05-07T12:17:54.279Z,405.2
2019-05-07T12:22:54.284Z,468.17
2019-05-07T12:27:53.196Z,472.79
2019-05-07T12:32:54.086Z,470.14
2019-05-07T12:37:53.192Z,293.96
2019-05-07T12:42:54.528Z,243.33
2019-05-07T12:47:55.087Z,205.77
2019-05-07T12:52:55.051Z,121.3
2019-05-07T12:57:53.983Z,126.89
2019-05-07T13:02:54.220Z,116.92
2019-05-07T13:07:53.155Z,114.68
2019-05-07T13:12:54.791Z,112.76
2019-05-07T13:17:54.139Z,101.28
2019-05-07T13:22:53.116Z,107.91
2019-05-07T13:27:54.234Z,112.31
2019-05-07T13:32:58.706Z,108.05
2019-05-07T13:37:58.748Z,112.38
2019-05-07T13:42:58.680Z,119.07
2019-05-07T13:47:58.670Z,114.53
2019-05-07T13:52:58.661Z,120.78
2019-05-07T13:57:58.670Z,120
2019-05-07T14:02:58.636Z,112.16
2019-05-07T14:07:58.657Z,108.47
2019-05-07T14:13:17.239Z,100.86
2019-05-07T14:17:58.675Z,118.65
2019-05-07T14:22:58.613Z,115.71
2019-05-07T14:28:02.225Z,116.27
2019-05-07T14:32:58.631Z,116.67
2019-05-07T14:37:59.927Z,111.86
2019-05-07T14:42:59.939Z,118.23
2019-05-07T14:47:59.962Z,125.94
2019-05-07T14:53:02.667Z,116.75
2019-05-07T14:58:01.814Z,121.57
2019-05-07T15:03:01.773Z,116.75
2019-05-07T15:08:14.069Z,103.97
2019-05-07T15:13:02.107Z,112.99
2019-05-07T15:17:59.900Z,119.75
2019-05-07T15:22:59.931Z,105.61
2019-05-07T15:28:01.718Z,106.07
2019-05-07T15:33:01.888Z,103.27
2019-05-07T15:37:59.914Z,105.28
2019-05-07T15:43:08.568Z,102.7
2019-05-07T15:48:04.254Z,102.08
2019-05-07T15:53:04.023Z,100.67
2019-05-07T16:20:34.782Z,146.07
2019-05-07T16:25:35.045Z,172.61
2019-05-07T16:36:52.577Z,171.91
2019-05-07T17:02:41.662Z,180.01
2019-05-07T17:07:39.946Z,192.13
2019-05-07T17:12:41.670Z,208.89
2019-05-07T17:17:39.871Z,208.36
2019-05-07T17:22:39.852Z,198.48
2019-05-07T18:11:47.150Z,199.32
2019-05-07T18:16:47.251Z,201.87
2019-05-07T18:21:47.245Z,198.84
2019-05-07T18:26:48.557Z,201.26
2019-05-07T18:31:47.202Z,187.55
2019-05-07T18:36:47.149Z,179.62
2019-05-07T18:41:52.262Z,179.24
2019-05-07T18:46:47.110Z,172.08
2019-05-07T18:57:34.966Z,149.71
2019-05-07T19:02:34.924Z,174.04
2019-05-07T19:07:35.878Z,185.36
2019-05-07T19:12:35.024Z,185.98
2019-05-07T19:17:34.862Z,190.69
2019-05-07T19:22:37.585Z,204.37
2019-05-07T19:27:36.054Z,209.68
2019-05-07T19:32:34.834Z,214.58
2019-05-07T19:37:34.919Z,194.39
2019-05-07T19:42:34.850Z,210.21
2019-05-07T19:47:34.941Z,229.16
2019-05-07T19:52:35.289Z,238.07
2019-05-07T19:57:37.551Z,240.5
2019-05-07T20:02:37.522Z,246.96
2019-05-07T20:07:37.572Z,249.57
2019-05-07T20:12:37.583Z,241.2
2019-05-07T20:17:37.521Z,222.38
2019-05-07T20:22:38.265Z,226.34
2019-05-07T20:27:38.263Z,229
2019-05-07T20:32:38.220Z,240.85
2019-05-07T20:37:38.247Z,240.85
2019-05-07T20:42:38.232Z,215.42
2019-05-07T20:47:38.237Z,254.18
2019-05-07T20:52:38.246Z,212.38
2019-05-07T20:57:47.251Z,256.55
2019-05-07T21:02:48.257Z,270.4
2019-05-07T21:07:44.507Z,257.75
2019-05-07T21:12:47.950Z,277.2
2019-05-07T21:17:44.980Z,296.07
2019-05-07T21:22:44.642Z,288.57
2019-05-07T21:27:45.266Z,304.24
2019-05-07T21:32:44.213Z,314.97
2019-05-07T21:37:43.959Z,310.82
2019-05-07T21:42:44.673Z,307.64
2019-05-07T21:47:43.680Z,325.83
2019-05-07T21:52:43.656Z,328.75
2019-05-07T21:57:43.696Z,333.73
2019-05-07T22:02:44.043Z,344.51
2019-05-07T22:07:43.660Z,266.04
2019-05-07T22:12:43.671Z,266.9
2019-05-07T22:17:46.395Z,291.88
2019-05-07T22:22:44.857Z,259.16
2019-05-07T22:27:44.294Z,259.77
2019-05-07T22:32:45.959Z,267.77
2019-05-07T22:37:47.823Z,267.77
2019-05-07T22:42:43.649Z,281.93
2019-05-07T22:47:45.657Z,306.78
2019-05-07T22:52:43.610Z,308.5
2019-05-07T22:57:44.176Z,299.28
2019-05-07T23:02:44.903Z,293.7
2019-05-07T23:07:49.315Z,292.4
2019-05-07T23:12:49.343Z,286.82
2019-05-07T23:17:49.278Z,301.74
2019-05-07T23:22:51.894Z,332.72
2019-05-07T23:27:54.529Z,266.47
2019-05-07T23:32:54.945Z,266.9
2019-05-07T23:37:55.093Z,303.4
2019-05-07T23:42:54.278Z,310.24
2019-05-07T23:47:54.003Z,337.48
2019-05-07T23:52:54.792Z,334.74
2019-05-07T23:57:54.679Z,321.08
